createdAt,value
2023-04-14T00:00:37.765Z,1.70
2023-04-14T00:03:25.575Z,1.67
2023-04-14T00:06:13.006Z,1.70
2023-04-14T00:09:01.039Z,1.67
2023-04-14T00:11:50.526Z,1.70
2023-04-14T00:14:37.903Z,2.63
2023-04-14T00:17:25.656Z,2.30
2023-04-14T00:20:13.118Z,2.30
2023-04-14T00:23:00.430Z,2.30
2023-04-14T00:25:49.212Z,2.43
2023-04-14T00:28:36.524Z,2.63
2023-04-14T00:31:23.902Z,2.53
2023-04-14T00:34:11.294Z,2.53
2023-04-14T00:36:58.626Z,2.63
2023-04-14T00:39:46.236Z,2.80
2023-04-14T00:42:33.609Z,2.47
2023-04-14T00:45:21.061Z,2.50
2023-04-14T00:48:09.180Z,2.37
2023-04-14T00:50:56.573Z,2.40
2023-04-14T00:53:43.944Z,2.47
2023-04-14T00:56:31.566Z,2.30
2023-04-14T00:59:19.002Z,2.40
2023-04-14T01:02:06.474Z,2.53
2023-04-14T01:04:54.887Z,2.80
2023-04-14T01:07:42.730Z,2.73
2023-04-14T01:10:31.661Z,2.77
2023-04-14T01:13:33.574Z,2.30
2023-04-14T01:16:29.450Z,2.23
2023-04-14T01:19:23.020Z,2.40
2023-04-14T01:22:10.888Z,2.40
2023-04-14T01:25:07.156Z,2.40
2023-04-14T01:28:13.162Z,2.40
2023-04-14T01:31:14.617Z,2.50
2023-04-14T01:34:05.001Z,2.10
2023-04-14T01:36:57.675Z,2.27
2023-04-14T01:39:52.802Z,2.53
2023-04-14T01:42:42.999Z,2.70
2023-04-14T01:45:34.422Z,3.00
2023-04-14T01:48:21.939Z,2.73
2023-04-14T01:51:09.975Z,2.47
2023-04-14T01:53:58.564Z,2.83
2023-04-14T01:56:46.516Z,2.87
2023-04-14T01:59:34.765Z,2.80
2023-04-14T02:02:23.311Z,2.50
2023-04-14T02:05:11.101Z,2.07
2023-04-14T02:08:00.253Z,1.90
2023-04-14T02:10:48.884Z,2.17
2023-04-14T02:13:36.561Z,2.00
2023-04-14T02:16:24.805Z,2.33
2023-04-14T02:19:12.981Z,2.20
2023-04-14T02:22:01.696Z,4.57
2023-04-14T02:24:49.150Z,5.90
2023-04-14T02:27:39.071Z,4.73
2023-04-14T02:30:46.689Z,5.07
2023-04-14T02:33:36.871Z,6.40
2023-04-14T02:36:29.976Z,5.97
2023-04-14T02:39:19.373Z,3.73
2023-04-14T02:42:12.515Z,2.90
2023-04-14T02:45:07.756Z,3.50
2023-04-14T02:47:57.416Z,2.60
2023-04-14T02:50:47.325Z,2.57
2023-04-14T02:53:35.194Z,2.67
2023-04-14T02:56:22.928Z,2.77
2023-04-14T02:59:11.293Z,2.70
2023-04-14T03:02:02.207Z,3.00
2023-04-14T03:04:50.043Z,3.03
2023-04-14T03:07:38.279Z,2.97
2023-04-14T03:10:26.030Z,3.30
2023-04-14T03:13:14.328Z,3.33
2023-04-14T03:16:03.215Z,3.40
2023-04-14T03:18:51.412Z,3.27
2023-04-14T03:21:39.471Z,3.00
2023-04-14T03:24:30.866Z,2.50
2023-04-14T03:27:21.993Z,2.60
2023-04-14T03:30:10.168Z,2.50
2023-04-14T03:33:00.512Z,2.80
2023-04-14T03:35:49.923Z,2.63
2023-04-14T03:38:37.560Z,2.70
2023-04-14T03:41:26.148Z,2.47
2023-04-14T03:44:15.802Z,2.60
2023-04-14T03:47:04.039Z,2.87
2023-04-14T03:49:54.444Z,2.67
2023-04-14T03:52:43.710Z,2.90
2023-04-14T03:55:31.938Z,2.83
2023-04-14T03:58:20.787Z,2.70
2023-04-14T04:01:09.070Z,2.50
2023-04-14T04:03:58.138Z,2.60
2023-04-14T04:06:46.091Z,2.37
2023-04-14T04:09:34.435Z,3.30
2023-04-14T04:12:22.401Z,2.80
2023-04-14T04:15:10.076Z,3.83
2023-04-14T04:17:58.769Z,3.53
2023-04-14T04:20:47.200Z,2.80
2023-04-14T04:23:35.405Z,2.40
2023-04-14T04:26:25.163Z,2.60
2023-04-14T04:29:12.587Z,2.97
2023-04-14T04:32:00.988Z,2.43
2023-04-14T04:34:51.972Z,3.20
2023-04-14T04:37:39.781Z,3.30
2023-04-14T04:40:27.364Z,3.30
2023-04-14T04:43:14.706Z,2.83
2023-04-14T04:46:05.259Z,3.27
2023-04-14T04:48:54.230Z,3.23
2023-04-14T04:51:41.590Z,3.50
2023-04-14T04:54:28.975Z,3.60
2023-04-14T04:57:16.390Z,3.33
2023-04-14T05:00:03.883Z,3.60
2023-04-14T05:02:51.369Z,3.87
2023-04-14T05:05:38.818Z,3.73
2023-04-14T05:08:26.286Z,3.73
2023-04-14T05:11:13.653Z,3.63
2023-04-14T05:14:01.815Z,3.87
2023-04-14T05:16:49.520Z,4.10
2023-04-14T05:19:36.942Z,3.87
2023-04-14T05:22:24.315Z,3.90
2023-04-14T05:25:11.642Z,3.87
2023-04-14T05:27:58.992Z,3.97
2023-04-14T05:30:46.623Z,4.70
2023-04-14T05:33:34.879Z,4.57
2023-04-14T05:36:22.295Z,4.47
2023-04-14T05:39:09.734Z,4.73
2023-04-14T05:41:57.085Z,5.33
2023-04-14T05:44:44.596Z,5.03
2023-04-14T05:47:32.904Z,5.67
2023-04-14T05:50:22.209Z,6.47
2023-04-14T05:53:09.608Z,6.43
2023-04-14T05:55:57.165Z,6.33
2023-04-14T05:58:44.570Z,5.90
2023-04-14T06:01:31.961Z,6.50
2023-04-14T06:04:19.527Z,5.70
2023-04-14T06:07:07.071Z,7.07
2023-04-14T06:09:54.825Z,6.80
2023-04-14T06:12:42.234Z,7.50
2023-04-14T06:15:29.725Z,7.90
2023-04-14T06:18:17.303Z,8.17
2023-04-14T06:21:04.757Z,9.90
2023-04-14T06:23:52.113Z,13.70
2023-04-14T06:26:39.472Z,18.53
2023-04-14T06:29:27.170Z,21.37
2023-04-14T06:32:14.566Z,23.10
2023-04-14T06:35:04.778Z,22.67
2023-04-14T06:37:52.213Z,11.13
2023-04-14T06:40:39.620Z,9.40
2023-04-14T06:43:28.707Z,9.47
2023-04-14T06:46:17.302Z,8.97
2023-04-14T06:49:04.802Z,8.67
2023-04-14T06:51:52.161Z,8.60
2023-04-14T06:54:39.555Z,8.63
2023-04-14T06:57:27.224Z,7.80
2023-04-14T07:00:14.725Z,8.10
2023-04-14T07:03:02.300Z,8.10
2023-04-14T07:05:50.124Z,8.23
2023-04-14T07:08:37.871Z,8.10
2023-04-14T07:11:25.452Z,8.40
2023-04-14T07:14:12.969Z,7.57
2023-04-14T07:17:00.449Z,7.47
2023-04-14T07:19:47.810Z,7.90
2023-04-14T07:22:35.167Z,8.23
2023-04-14T07:25:22.795Z,7.90
2023-04-14T07:28:10.447Z,8.63
2023-04-14T07:30:57.925Z,8.03
2023-04-14T07:33:45.321Z,7.70
2023-04-14T07:36:33.185Z,7.43
2023-04-14T07:39:23.509Z,7.17
2023-04-14T07:42:11.883Z,7.50
2023-04-14T07:44:59.290Z,6.77
2023-04-14T07:47:46.890Z,5.90
2023-04-14T07:50:34.371Z,6.87
2023-04-14T07:53:21.801Z,6.30
2023-04-14T07:56:09.294Z,6.03
2023-04-14T07:58:56.647Z,6.47
2023-04-14T08:01:44.208Z,6.00
2023-04-14T08:04:32.005Z,5.57
2023-04-14T08:07:19.398Z,6.37
2023-04-14T08:10:07.365Z,5.63
2023-04-14T08:12:54.701Z,6.20
2023-04-14T08:15:42.051Z,6.00
2023-04-14T08:18:29.477Z,5.50
2023-04-14T08:21:16.856Z,5.47
2023-04-14T08:24:04.307Z,5.77
2023-04-14T08:26:51.665Z,5.83
2023-04-14T08:29:39.031Z,5.47
2023-04-14T08:32:28.647Z,4.93
2023-04-14T08:35:39.240Z,5.47
2023-04-14T08:38:23.693Z,5.13
2023-04-14T08:41:12.998Z,5.20
2023-04-14T08:44:01.834Z,5.10
2023-04-14T08:46:52.676Z,4.37
2023-04-14T08:49:44.716Z,3.40
2023-04-14T08:52:32.858Z,4.00
2023-04-14T08:55:20.554Z,3.90
2023-04-14T08:58:10.687Z,3.10
2023-04-14T09:00:58.745Z,4.20
2023-04-14T09:03:47.161Z,3.90
2023-04-14T09:06:35.468Z,3.57
2023-04-14T09:09:23.229Z,3.93
2023-04-14T09:12:12.401Z,2.93
2023-04-14T09:15:00.101Z,2.53
2023-04-14T09:17:47.586Z,2.50
2023-04-14T09:20:40.961Z,2.50
2023-04-14T09:23:29.122Z,2.60
2023-04-14T09:26:16.649Z,3.20
2023-04-14T09:29:04.176Z,2.43
2023-04-14T09:31:52.493Z,2.37
2023-04-14T09:34:50.412Z,3.00
2023-04-14T09:37:44.729Z,2.43
2023-04-14T09:40:32.311Z,2.40
2023-04-14T09:43:29.296Z,3.17
2023-04-14T09:46:17.030Z,2.20
2023-04-14T09:49:07.005Z,2.30
2023-04-14T09:51:55.231Z,2.20
2023-04-14T09:54:43.056Z,2.17
2023-04-14T09:57:30.407Z,2.17
2023-04-14T10:00:18.033Z,2.03
2023-04-14T10:03:05.487Z,2.20
2023-04-14T10:05:52.905Z,2.10
2023-04-14T10:08:41.771Z,2.50
2023-04-14T10:11:30.387Z,2.00
2023-04-14T10:14:18.139Z,1.87
2023-04-14T10:17:06.450Z,2.13
2023-04-14T10:19:55.052Z,2.03
2023-04-14T10:22:42.850Z,2.10
2023-04-14T10:25:31.062Z,2.07
2023-04-14T10:28:18.611Z,2.40
2023-04-14T10:31:08.324Z,1.77
2023-04-14T10:33:55.749Z,1.90
2023-04-14T10:36:43.643Z,2.00
2023-04-14T10:39:32.025Z,2.03
2023-04-14T10:42:19.409Z,2.23
2023-04-14T10:45:07.986Z,2.07
2023-04-14T10:47:56.780Z,1.83
2023-04-14T10:50:51.214Z,2.60
2023-04-14T10:53:46.361Z,2.43
2023-04-14T10:56:33.760Z,2.17
2023-04-14T10:59:21.518Z,2.70
2023-04-14T11:02:28.360Z,3.03
2023-04-14T11:05:16.024Z,2.47
2023-04-14T11:08:13.786Z,2.63
2023-04-14T11:11:02.174Z,2.50
2023-04-14T11:14:09.486Z,2.20
2023-04-14T11:17:04.903Z,2.83
2023-04-14T11:19:55.431Z,3.00
2023-04-14T11:22:44.515Z,2.10
2023-04-14T11:25:32.089Z,2.23
2023-04-14T11:28:39.807Z,2.33
2023-04-14T11:31:27.773Z,2.13
2023-04-14T11:34:15.686Z,2.30
2023-04-14T11:37:03.975Z,2.10
2023-04-14T11:39:52.165Z,1.93
2023-04-14T11:42:40.553Z,2.40
2023-04-14T11:45:29.071Z,2.80
2023-04-14T11:48:17.350Z,3.27
2023-04-14T11:51:05.443Z,4.30
2023-04-14T11:53:55.706Z,4.67
2023-04-14T11:56:44.122Z,5.83
2023-04-14T11:59:31.467Z,5.47
2023-04-14T12:02:20.092Z,5.57
2023-04-14T12:05:08.040Z,5.73
2023-04-14T12:07:59.745Z,5.67
2023-04-14T12:10:48.247Z,5.03
2023-04-14T12:13:40.961Z,5.00
2023-04-14T12:16:28.561Z,6.13
2023-04-14T12:19:15.936Z,5.37
2023-04-14T12:22:04.345Z,5.83
2023-04-14T12:24:51.737Z,5.20
2023-04-14T12:27:39.213Z,4.93
2023-04-14T12:30:26.566Z,5.03
2023-04-14T12:33:14.034Z,4.10
2023-04-14T12:36:05.249Z,5.07
2023-04-14T12:38:52.659Z,4.67
2023-04-14T12:41:40.241Z,4.63
2023-04-14T12:44:27.602Z,4.47
2023-04-14T12:47:26.976Z,3.57
2023-04-14T12:50:23.572Z,2.93
2023-04-14T12:53:23.592Z,3.33
2023-04-14T12:56:15.976Z,3.23
2023-04-14T12:59:04.531Z,3.43
2023-04-14T13:01:52.139Z,4.70
2023-04-14T13:04:39.764Z,4.57
2023-04-14T13:07:27.127Z,4.33
2023-04-14T13:10:14.684Z,4.80
2023-04-14T13:13:02.624Z,4.47
2023-04-14T13:16:12.645Z,5.50
2023-04-14T13:18:58.823Z,5.57
2023-04-14T13:21:46.350Z,6.03
2023-04-14T13:24:34.182Z,6.77
2023-04-14T13:27:21.669Z,6.43
2023-04-14T13:30:09.470Z,6.47
2023-04-14T13:32:58.468Z,6.33
2023-04-14T13:35:46.151Z,6.70
2023-04-14T13:38:33.787Z,6.87
2023-04-14T13:41:21.183Z,6.47
2023-04-14T13:44:08.967Z,7.40
2023-04-14T13:46:56.615Z,8.53
2023-04-14T13:49:43.937Z,9.03
2023-04-14T13:52:31.374Z,10.40
2023-04-14T13:55:19.210Z,9.50
2023-04-14T13:58:06.598Z,8.70
2023-04-14T14:00:55.219Z,8.77
2023-04-14T14:03:42.847Z,10.27
2023-04-14T14:06:31.209Z,9.63
2023-04-14T14:09:18.578Z,9.93
2023-04-14T14:12:06.560Z,8.83
2023-04-14T14:14:53.961Z,8.00
2023-04-14T14:17:41.550Z,7.40
2023-04-14T14:20:28.979Z,7.50
2023-04-14T14:23:16.493Z,6.17
2023-04-14T14:26:03.982Z,6.23
2023-04-14T14:28:51.376Z,6.40
2023-04-14T14:31:38.770Z,6.67
2023-04-14T14:34:26.178Z,5.20
2023-04-14T14:37:17.289Z,3.87
2023-04-14T14:40:04.878Z,4.27
2023-04-14T14:42:52.521Z,4.53
2023-04-14T14:45:39.832Z,4.07
2023-04-14T14:48:27.343Z,3.53
2023-04-14T14:51:14.668Z,3.93
2023-04-14T14:54:09.190Z,4.07
2023-04-14T14:56:57.437Z,4.10
2023-04-14T14:59:44.760Z,3.53
2023-04-14T15:02:32.327Z,3.23
2023-04-14T15:05:19.813Z,4.77
2023-04-14T15:08:07.422Z,5.00
2023-04-14T15:10:54.800Z,5.17
2023-04-14T15:13:45.503Z,5.17
2023-04-14T15:16:33.322Z,7.10
2023-04-14T15:19:20.796Z,7.37
2023-04-14T15:22:08.299Z,9.23
2023-04-14T15:24:55.667Z,8.93
2023-04-14T15:27:43.029Z,9.47
2023-04-14T15:30:30.426Z,7.93
2023-04-14T15:33:17.749Z,8.17
2023-04-14T15:36:05.210Z,8.20
2023-04-14T15:38:52.606Z,8.97
2023-04-14T15:41:39.937Z,7.80
2023-04-14T15:44:27.389Z,7.87
2023-04-14T15:47:14.744Z,8.73
2023-04-14T15:50:08.858Z,8.07
2023-04-14T15:52:58.305Z,8.30
2023-04-14T15:55:45.862Z,8.30
2023-04-14T15:58:33.213Z,7.93
2023-04-14T16:01:20.839Z,9.20
2023-04-14T16:04:08.246Z,9.70
2023-04-14T16:06:55.852Z,8.83
2023-04-14T16:09:43.200Z,10.63
2023-04-14T16:12:30.572Z,10.10
2023-04-14T16:15:18.409Z,11.63
2023-04-14T16:18:05.805Z,10.93
2023-04-14T16:20:53.403Z,12.10
2023-04-14T16:23:41.275Z,11.67
2023-04-14T16:26:28.688Z,11.60
2023-04-14T16:29:16.139Z,12.77
2023-04-14T16:32:04.092Z,12.07
2023-04-14T16:34:51.447Z,12.33
2023-04-14T16:37:38.838Z,10.83
2023-04-14T16:40:26.582Z,10.60
2023-04-14T16:43:13.993Z,10.30
2023-04-14T16:46:05.145Z,10.10
2023-04-14T16:48:52.607Z,10.80
2023-04-14T16:51:40.027Z,10.83
2023-04-14T16:54:27.979Z,9.47
2023-04-14T16:57:15.463Z,9.60
2023-04-14T17:00:03.274Z,9.87
2023-04-14T17:02:51.200Z,9.37
2023-04-14T17:05:38.723Z,10.33
2023-04-14T17:08:26.554Z,9.50
2023-04-14T17:11:15.025Z,9.40
2023-04-14T17:14:02.575Z,8.97
2023-04-14T17:16:50.186Z,9.17
2023-04-14T17:19:37.559Z,9.33
2023-04-14T17:22:24.940Z,9.10
2023-04-14T17:25:13.135Z,9.67
2023-04-14T17:28:00.474Z,9.67
2023-04-14T17:30:47.803Z,9.57
2023-04-14T17:33:35.209Z,10.03
2023-04-14T17:36:22.628Z,10.30
2023-04-14T17:39:10.293Z,9.93
2023-04-14T17:41:58.392Z,9.17
2023-04-14T17:44:46.001Z,9.47
2023-04-14T17:47:37.656Z,9.43
2023-04-14T17:50:25.422Z,9.93
2023-04-14T17:53:15.341Z,10.70
2023-04-14T17:56:02.835Z,9.67
2023-04-14T17:58:51.736Z,10.10
2023-04-14T18:01:40.530Z,9.90
2023-04-14T18:04:28.001Z,10.33
2023-04-14T18:07:15.436Z,10.50
2023-04-14T18:10:03.376Z,10.17
2023-04-14T18:12:50.898Z,10.67
2023-04-14T18:15:40.546Z,11.03
2023-04-14T18:18:28.451Z,9.27
2023-04-14T18:21:16.231Z,9.53
2023-04-14T18:26:54.733Z,9.73
2023-04-14T18:29:42.617Z,9.23
2023-04-14T18:32:31.247Z,9.90
2023-04-14T18:35:18.754Z,9.93
2023-04-14T18:38:06.104Z,10.80
2023-04-14T18:40:53.524Z,10.37
2023-04-14T18:43:40.883Z,11.00
2023-04-14T18:46:28.297Z,9.87
2023-04-14T18:49:15.724Z,11.00
2023-04-14T18:52:03.666Z,10.70
2023-04-14T18:54:51.029Z,10.93
2023-04-14T18:57:38.413Z,10.37
2023-04-14T19:00:29.534Z,10.93
2023-04-14T19:03:18.384Z,11.10
2023-04-14T19:06:05.929Z,11.43
2023-04-14T19:08:53.253Z,11.00
2023-04-14T19:11:40.631Z,12.10
2023-04-14T19:14:28.316Z,12.13
2023-04-14T19:17:16.034Z,11.93
2023-04-14T19:20:04.422Z,11.70
2023-04-14T19:22:51.885Z,12.20
2023-04-14T19:25:40.506Z,11.97
2023-04-14T19:28:27.961Z,12.10
2023-04-14T19:31:17.367Z,13.07
2023-04-14T19:34:04.833Z,12.83
2023-04-14T19:36:52.791Z,12.70
2023-04-14T19:39:40.256Z,12.27
2023-04-14T19:42:27.770Z,12.23
2023-04-14T19:45:15.436Z,11.70
2023-04-14T19:48:10.144Z,12.20
2023-04-14T19:51:09.872Z,12.23
2023-04-14T19:53:57.334Z,11.47
2023-04-14T19:56:45.029Z,11.60
2023-04-14T19:59:32.788Z,12.00
2023-04-14T20:02:20.143Z,11.60
2023-04-14T20:05:08.150Z,12.10
2023-04-14T20:07:55.507Z,12.10
2023-04-14T20:10:42.820Z,10.20
2023-04-14T20:13:33.879Z,9.93
2023-04-14T20:16:21.922Z,9.80
2023-04-14T20:19:09.360Z,9.63
2023-04-14T20:21:56.724Z,9.83
2023-04-14T20:24:44.716Z,9.90
2023-04-14T20:27:32.053Z,10.40
2023-04-14T20:30:19.398Z,9.67
2023-04-14T20:33:06.890Z,8.80
2023-04-14T20:35:54.477Z,7.87
2023-04-14T20:38:42.732Z,8.93
2023-04-14T20:41:30.114Z,8.30
2023-04-14T20:44:17.472Z,9.13
2023-04-14T20:47:04.904Z,8.90
2023-04-14T20:49:52.301Z,9.17
2023-04-14T20:52:40.332Z,8.73
2023-04-14T20:55:27.712Z,7.53
2023-04-14T20:58:15.185Z,7.97
2023-04-14T21:01:02.884Z,8.27
2023-04-14T21:03:50.315Z,8.43
2023-04-14T21:06:37.720Z,8.93
2023-04-14T21:09:25.192Z,7.60
2023-04-14T21:12:15.547Z,7.80
2023-04-14T21:15:45.633Z,7.93
2023-04-14T21:18:12.949Z,7.27
2023-04-14T21:21:02.170Z,8.27
2023-04-14T21:23:49.526Z,7.40
2023-04-14T21:26:37.236Z,7.43
2023-04-14T21:29:24.744Z,6.87
2023-04-14T21:32:12.092Z,6.93
2023-04-14T21:34:59.966Z,6.90
2023-04-14T21:37:47.311Z,6.97
2023-04-14T21:40:34.668Z,6.90
2023-04-14T21:43:22.317Z,6.83
2023-04-14T21:46:09.971Z,6.73
2023-04-14T21:48:57.528Z,5.33
2023-04-14T21:51:44.966Z,5.43
2023-04-14T21:54:32.638Z,5.43
2023-04-14T21:57:44.544Z,5.10
2023-04-14T22:00:27.805Z,5.37
2023-04-14T22:03:15.300Z,5.03
2023-04-14T22:06:02.785Z,4.63
2023-04-14T22:08:50.239Z,4.73
2023-04-14T22:11:37.736Z,5.03
2023-04-14T22:14:25.170Z,5.37
2023-04-14T22:17:12.535Z,4.50
2023-04-14T22:20:00.637Z,4.87
2023-04-14T22:22:47.984Z,4.93
2023-04-14T22:25:35.553Z,4.60
2023-04-14T22:28:22.925Z,4.80
2023-04-14T22:31:10.480Z,4.90
2023-04-14T22:33:57.870Z,4.67
2023-04-14T22:36:45.259Z,4.90
2023-04-14T22:39:32.600Z,4.60
2023-04-14T22:42:20.137Z,4.50
2023-04-14T22:45:08.068Z,4.63
2023-04-14T22:47:55.565Z,5.17
2023-04-14T22:50:42.975Z,5.10
2023-04-14T22:53:30.425Z,4.67
2023-04-14T22:56:18.307Z,4.47
2023-04-14T22:59:05.747Z,4.97
2023-04-14T23:01:53.213Z,4.77
2023-04-14T23:04:40.835Z,5.00
2023-04-14T23:07:28.507Z,5.60
2023-04-14T23:10:15.944Z,5.70
2023-04-14T23:13:03.480Z,5.10
2023-04-14T23:15:52.575Z,5.30
2023-04-14T23:18:40.172Z,4.87
2023-04-14T23:21:27.596Z,5.40
2023-04-14T23:24:14.915Z,5.33
2023-04-14T23:27:02.974Z,5.20
2023-04-14T23:29:50.314Z,5.60
2023-04-14T23:32:37.708Z,5.33
2023-04-14T23:35:25.458Z,4.80
2023-04-14T23:38:12.825Z,5.20
2023-04-14T23:41:00.253Z,5.00
2023-04-14T23:43:49.393Z,5.40
2023-04-14T23:46:36.791Z,5.30
2023-04-14T23:49:34.155Z,5.53
2023-04-14T23:52:22.029Z,5.53
2023-04-14T23:55:09.782Z,5.27
